ROS weather

Islas Malvinas Airport
Rosario, Santa Fe Province, Argentina

Public forecast

Using degrees Celsius for public forecast. Weather courtesy of forecast.io.

METAR (pilot weather report)

Retrieved 2019/06/16 14:00 UTC (14 minutes ago):

SAAR 161400Z 20006KT 8000 -DZ BKN002 OVC003 12/12 Q1019

TAF (pilot weather forecast)

Retrieved 2019/06/16 12:00 UTC (2 hours ago):

TAF SAAR 161100Z 1612/1712 20010KT 3000 DZ BKN003 OVC005 TX13/1618Z TN09/1708Z PROB40 TEMPO 1614/1617 7000 TSRA BKN008 OVC015 FEW050CB BECMG 1618/1621 23010KT 8000 -DZ OVC010